createdAt,value
2018-01-27T00:00:03.234Z,7.3
2018-01-27T00:01:04.082Z,7.29
2018-01-27T00:02:04.694Z,7.29
2018-01-27T00:03:03.416Z,7.3
2018-01-27T00:04:02.636Z,7.26
2018-01-27T00:05:02.611Z,7.26
2018-01-27T00:06:03.099Z,7.24
2018-01-27T00:07:03.394Z,7.25
2018-01-27T00:08:04.220Z,7.24
2018-01-27T00:09:02.909Z,7.24
2018-01-27T00:10:02.623Z,7.22
2018-01-27T00:11:03.706Z,7.22
2018-01-27T00:12:03.478Z,7.25
2018-01-27T00:13:03.367Z,7.23
2018-01-27T00:14:02.677Z,7.22
2018-01-27T00:15:02.693Z,7.23
2018-01-27T00:16:02.702Z,7.23
2018-01-27T00:17:02.749Z,7.19
2018-01-27T00:18:03.676Z,7.18
2018-01-27T00:19:02.825Z,7.15
2018-01-27T00:20:04.279Z,7.13
2018-01-27T00:21:03.289Z,7.14
2018-01-27T00:22:02.901Z,7.15
2018-01-27T00:23:02.997Z,7.17
2018-01-27T00:24:03.261Z,7.17
2018-01-27T00:25:03.021Z,7.16
2018-01-27T00:26:02.870Z,7.14
2018-01-27T00:27:02.740Z,7.14
2018-01-27T00:28:02.947Z,7.12
2018-01-27T00:29:03.217Z,7.11
2018-01-27T00:30:04.275Z,7.12
2018-01-27T00:31:03.712Z,7.11
2018-01-27T00:32:03.480Z,7.13
2018-01-27T00:33:02.820Z,7.11
2018-01-27T00:34:03.817Z,7.09
2018-01-27T00:35:03.516Z,7.07
2018-01-27T00:36:03.424Z,7.08
2018-01-27T00:37:02.696Z,7.08
2018-01-27T00:38:03.361Z,7.06
2018-01-27T00:39:03.341Z,7.07
2018-01-27T00:40:03.392Z,7.08
2018-01-27T00:41:02.766Z,7.08
2018-01-27T00:42:02.688Z,7.05
2018-01-27T00:43:03.722Z,7.07
2018-01-27T00:44:04.345Z,7.07
2018-01-27T00:45:02.948Z,7.04
2018-01-27T00:46:03.408Z,7.04
2018-01-27T00:47:05.380Z,7.01
2018-01-27T00:48:04.085Z,7.02
2018-01-27T00:49:04.081Z,7.01
2018-01-27T00:50:05.147Z,7.02
2018-01-27T00:51:03.510Z,7
2018-01-27T00:52:03.121Z,7
2018-01-27T00:53:02.817Z,7
2018-01-27T00:54:02.773Z,7.02
2018-01-27T00:55:02.656Z,7.03
2018-01-27T00:56:02.623Z,7.02
2018-01-27T00:57:02.658Z,7.01
2018-01-27T00:58:02.972Z,7.01
2018-01-27T00:59:02.717Z,6.99
2018-01-27T01:00:02.854Z,6.99
2018-01-27T01:01:02.717Z,6.96
2018-01-27T01:02:04.007Z,6.98
2018-01-27T01:03:02.709Z,6.95
2018-01-27T01:04:03.013Z,6.95
2018-01-27T01:05:02.859Z,6.95
2018-01-27T01:06:03.799Z,6.97
2018-01-27T01:07:04.257Z,6.96
2018-01-27T01:08:02.717Z,6.95
2018-01-27T01:09:03.606Z,6.94
2018-01-27T01:10:03.241Z,6.93
2018-01-27T01:11:02.657Z,6.96
2018-01-27T01:12:03.624Z,6.93
2018-01-27T01:13:04.275Z,6.95
2018-01-27T01:14:03.476Z,6.94
2018-01-27T01:15:03.499Z,6.94
2018-01-27T01:16:03.448Z,6.94
2018-01-27T01:17:02.842Z,6.92
2018-01-27T01:18:02.553Z,6.9
2018-01-27T01:19:02.747Z,6.9
2018-01-27T01:20:03.455Z,6.91
2018-01-27T01:21:02.671Z,6.93
2018-01-27T01:22:02.836Z,6.94
2018-01-27T01:23:02.739Z,6.93
2018-01-27T01:24:02.765Z,6.95
2018-01-27T01:25:02.947Z,6.94
2018-01-27T01:26:02.809Z,6.92
2018-01-27T01:27:02.791Z,6.94
2018-01-27T01:28:03.776Z,6.96
2018-01-27T01:29:02.900Z,6.95
2018-01-27T01:30:02.918Z,6.96
2018-01-27T01:31:02.795Z,6.96
2018-01-27T01:32:04.019Z,6.96
2018-01-27T01:33:02.913Z,7
2018-01-27T01:34:03.380Z,7
2018-01-27T01:35:02.804Z,6.98
2018-01-27T01:36:04.408Z,6.99
2018-01-27T01:37:03.648Z,6.99
2018-01-27T01:38:03.299Z,6.98
2018-01-27T01:39:02.624Z,6.97
2018-01-27T01:40:02.645Z,6.97
2018-01-27T01:41:02.961Z,7
2018-01-27T01:42:02.848Z,6.98
2018-01-27T01:43:03.573Z,7
2018-01-27T01:44:03.696Z,6.99
2018-01-27T01:45:03.024Z,6.99
2018-01-27T01:46:02.874Z,7
2018-01-27T01:47:03.824Z,7
2018-01-27T01:48:02.712Z,6.97
2018-01-27T01:49:02.867Z,6.93
2018-01-27T01:50:03.027Z,6.95
2018-01-27T01:51:03.392Z,6.97
2018-01-27T01:52:03.733Z,6.94
2018-01-27T01:53:02.744Z,6.98
2018-01-27T01:54:04.576Z,6.95
2018-01-27T01:55:02.943Z,6.96
2018-01-27T01:56:02.724Z,6.95
2018-01-27T01:57:02.799Z,6.93
2018-01-27T01:58:02.756Z,6.97
2018-01-27T01:59:02.873Z,6.97
2018-01-27T02:00:02.847Z,6.95
2018-01-27T02:01:03.241Z,6.96
2018-01-27T02:02:03.560Z,6.97
2018-01-27T02:03:02.908Z,6.97
2018-01-27T02:04:04.119Z,6.95
2018-01-27T02:05:02.783Z,6.97
2018-01-27T02:06:02.841Z,7.01
2018-01-27T02:07:03.146Z,6.99
2018-01-27T02:08:03.318Z,7.02
2018-01-27T02:09:03.563Z,6.99
2018-01-27T02:10:02.748Z,6.97
2018-01-27T02:11:02.643Z,6.97
2018-01-27T02:12:03.551Z,6.96
2018-01-27T02:13:02.796Z,6.96
2018-01-27T02:14:03.324Z,6.97
2018-01-27T02:15:02.886Z,6.95
2018-01-27T02:16:03.419Z,6.97
2018-01-27T02:17:02.788Z,6.96
2018-01-27T02:18:02.898Z,6.96
2018-01-27T02:19:03.452Z,6.96
2018-01-27T02:20:03.722Z,6.95
2018-01-27T02:21:03.523Z,6.96
2018-01-27T02:22:03.413Z,6.95
2018-01-27T02:23:03.161Z,6.95
2018-01-27T02:24:03.145Z,6.94
2018-01-27T02:25:02.876Z,6.93
2018-01-27T02:26:03.880Z,6.98
2018-01-27T02:27:02.956Z,6.99
2018-01-27T02:28:02.757Z,6.97
2018-01-27T02:29:03.558Z,6.96
2018-01-27T02:30:02.938Z,6.95
2018-01-27T02:31:04.653Z,6.98
2018-01-27T02:32:03.713Z,6.98
2018-01-27T02:33:02.752Z,6.98
2018-01-27T02:34:02.907Z,6.97
2018-01-27T02:35:03.525Z,7
2018-01-27T02:36:03.075Z,6.96
2018-01-27T02:37:03.083Z,6.99
2018-01-27T02:38:03.514Z,6.99
2018-01-27T02:39:02.936Z,7.01
2018-01-27T02:40:02.927Z,6.98
2018-01-27T02:41:02.977Z,7
2018-01-27T02:42:02.827Z,6.99
2018-01-27T02:43:03.027Z,6.98
2018-01-27T02:44:03.665Z,6.99
2018-01-27T02:45:03.006Z,7
2018-01-27T02:46:02.833Z,6.98
2018-01-27T02:47:02.856Z,6.95
2018-01-27T02:48:02.937Z,6.92
2018-01-27T02:49:03.020Z,6.96
2018-01-27T02:50:03.627Z,6.94
2018-01-27T02:51:03.758Z,6.94
2018-01-27T02:52:03.561Z,6.93
2018-01-27T02:53:03.020Z,6.96
2018-01-27T02:54:02.870Z,6.94
2018-01-27T02:55:02.913Z,6.95
2018-01-27T02:56:02.955Z,6.97
2018-01-27T02:57:03.694Z,6.97
2018-01-27T02:58:02.948Z,6.96
2018-01-27T02:59:03.001Z,6.96
2018-01-27T03:00:03.055Z,6.94
2018-01-27T03:01:03.007Z,6.92
2018-01-27T03:02:03.007Z,6.89
2018-01-27T03:03:04.127Z,6.92
2018-01-27T03:04:03.764Z,6.89
2018-01-27T03:05:03.408Z,6.89
2018-01-27T03:06:02.959Z,6.89
2018-01-27T03:07:02.829Z,6.93
2018-01-27T03:08:02.994Z,6.9
2018-01-27T03:09:02.821Z,6.92
2018-01-27T03:10:02.700Z,6.91
2018-01-27T03:11:02.739Z,6.95
2018-01-27T03:12:02.751Z,6.92
2018-01-27T03:13:03.008Z,6.95
2018-01-27T03:14:03.040Z,6.94
2018-01-27T03:15:03.173Z,6.93
2018-01-27T03:16:02.855Z,6.97
2018-01-27T03:17:02.955Z,6.95
2018-01-27T03:18:02.789Z,6.94
2018-01-27T03:19:03.024Z,6.94
2018-01-27T03:20:02.728Z,6.96
2018-01-27T03:21:03.473Z,6.95
2018-01-27T03:22:03.798Z,6.98
2018-01-27T03:23:03.486Z,6.98
2018-01-27T03:24:03.086Z,6.98
2018-01-27T03:25:02.786Z,6.98
2018-01-27T03:26:03.638Z,7.01
2018-01-27T03:27:03.585Z,7.01
2018-01-27T03:28:02.968Z,7.01
2018-01-27T03:29:03.007Z,7.03
2018-01-27T03:30:03.200Z,7.02
2018-01-27T03:31:03.031Z,7.02
2018-01-27T03:32:03.638Z,7.06
2018-01-27T03:33:02.964Z,7.04
2018-01-27T03:34:03.060Z,7.07
2018-01-27T03:35:03.768Z,7.06
2018-01-27T03:36:03.621Z,7.06
2018-01-27T03:37:02.949Z,7.07
2018-01-27T03:38:03.714Z,7.07
2018-01-27T03:39:03.350Z,7.06
2018-01-27T03:40:02.984Z,7.03
2018-01-27T03:41:03.121Z,7.02
2018-01-27T03:42:03.278Z,7.06
2018-01-27T03:43:03.291Z,7.03
2018-01-27T03:44:04.204Z,7.04
2018-01-27T03:45:03.171Z,7.04
2018-01-27T03:46:03.238Z,7.05
2018-01-27T03:47:03.302Z,7.06
2018-01-27T03:48:03.719Z,7.04
2018-01-27T03:49:03.888Z,7.05
2018-01-27T03:50:03.143Z,7.05
2018-01-27T03:51:02.986Z,7.03
2018-01-27T03:52:05.845Z,7
2018-01-27T03:53:03.183Z,7
2018-01-27T03:54:04.291Z,7.04
2018-01-27T03:55:04.258Z,7.02
2018-01-27T03:56:04.204Z,7.01
2018-01-27T03:57:04.174Z,7.01
2018-01-27T03:58:04.686Z,7
2018-01-27T03:59:03.046Z,6.99
2018-01-27T04:00:03.517Z,6.99
2018-01-27T04:01:03.796Z,6.97
2018-01-27T04:02:03.034Z,6.99
2018-01-27T04:03:04.154Z,7
2018-01-27T04:04:03.064Z,6.98
2018-01-27T04:06:03.182Z,6.97
2018-01-27T04:07:05.694Z,6.96
2018-01-27T04:08:07.346Z,6.95
2018-01-27T04:09:02.854Z,6.94
2018-01-27T04:10:03.795Z,6.96
2018-01-27T04:11:03.026Z,6.97
2018-01-27T04:12:03.910Z,6.95
2018-01-27T04:13:04.621Z,6.97
2018-01-27T04:14:03.615Z,6.97
2018-01-27T04:15:03.885Z,6.97
2018-01-27T04:16:03.019Z,6.97
2018-01-27T04:17:04.783Z,6.96
2018-01-27T04:18:02.919Z,6.97
2018-01-27T04:19:03.282Z,6.95
2018-01-27T04:20:03.847Z,6.95
2018-01-27T04:21:05.330Z,6.94
2018-01-27T04:22:05.406Z,6.94
2018-01-27T04:23:03.438Z,6.92
2018-01-27T04:24:03.320Z,6.92
2018-01-27T04:25:03.096Z,6.92
2018-01-27T04:26:03.433Z,6.93
2018-01-27T04:27:03.764Z,6.92
2018-01-27T04:28:03.155Z,6.93
2018-01-27T04:29:03.329Z,6.93
2018-01-27T04:30:03.067Z,6.95
2018-01-27T04:31:03.144Z,6.95
2018-01-27T04:32:04.663Z,6.97
2018-01-27T04:33:04.382Z,6.99
2018-01-27T04:34:03.698Z,6.98
2018-01-27T04:35:03.306Z,6.99
2018-01-27T04:36:03.106Z,6.99
2018-01-27T04:37:03.523Z,6.98
2018-01-27T04:38:03.123Z,6.97
2018-01-27T04:39:02.999Z,6.96
2018-01-27T04:40:03.271Z,6.99
2018-01-27T04:41:02.924Z,6.99
2018-01-27T04:42:05.245Z,6.99
2018-01-27T04:43:03.751Z,6.98
2018-01-27T04:44:04.437Z,6.98
2018-01-27T04:45:03.172Z,6.98
2018-01-27T04:46:03.936Z,6.98
2018-01-27T04:47:03.258Z,7.02
2018-01-27T04:48:03.185Z,6.98
2018-01-27T04:49:03.092Z,6.99
2018-01-27T04:50:04.341Z,6.98
2018-01-27T04:51:04.451Z,7.01
2018-01-27T04:52:05.993Z,6.97
2018-01-27T04:53:03.246Z,6.96
2018-01-27T04:54:05.248Z,6.94
2018-01-27T04:55:04.680Z,6.95
2018-01-27T04:56:05.319Z,6.98
2018-01-27T04:57:05.456Z,6.97
2018-01-27T04:58:03.873Z,6.95
2018-01-27T04:59:06.592Z,6.96
2018-01-27T05:00:03.383Z,6.99
2018-01-27T05:01:05.879Z,6.97
2018-01-27T05:02:15.998Z,6.96
2018-01-27T05:03:05.027Z,6.97
2018-01-27T05:04:05.387Z,6.98
2018-01-27T05:05:03.405Z,6.98
2018-01-27T05:06:03.549Z,6.99
2018-01-27T05:07:04.375Z,6.91
2018-01-27T05:08:06.290Z,6.93
2018-01-27T05:09:09.471Z,6.91
2018-01-27T05:10:04.360Z,6.93
2018-01-27T05:11:03.908Z,6.93
2018-01-27T05:12:03.991Z,6.96
2018-01-27T05:13:05.448Z,6.97
2018-01-27T05:14:04.652Z,6.9
2018-01-27T05:15:05.358Z,6.9
2018-01-27T05:16:04.144Z,6.84
2018-01-27T05:17:04.302Z,6.87
2018-01-27T05:18:03.402Z,6.86
2018-01-27T05:19:04.820Z,6.89
2018-01-27T05:20:05.685Z,6.91
2018-01-27T05:21:05.106Z,6.93
2018-01-27T05:22:05.148Z,6.93
2018-01-27T05:23:04.697Z,6.91
2018-01-27T05:24:03.249Z,6.91
2018-01-27T05:25:08.372Z,6.9
2018-01-27T05:26:05.036Z,6.92
2018-01-27T05:27:03.884Z,6.89
2018-01-27T05:28:06.007Z,6.88
2018-01-27T05:29:04.125Z,6.88
2018-01-27T05:30:05.261Z,6.86
2018-01-27T05:31:03.506Z,6.89
2018-01-27T05:32:05.861Z,6.88
2018-01-27T05:33:04.162Z,6.89
2018-01-27T05:34:05.194Z,6.94
2018-01-27T05:35:03.382Z,6.93
2018-01-27T05:36:04.492Z,6.93
2018-01-27T05:37:03.513Z,6.9
2018-01-27T05:38:03.412Z,6.92
2018-01-27T05:39:03.738Z,6.9
2018-01-27T05:40:05.417Z,6.91
2018-01-27T05:41:03.406Z,6.89
2018-01-27T05:42:07.095Z,6.88
2018-01-27T05:43:04.909Z,6.89
2018-01-27T05:44:06.356Z,6.89
2018-01-27T05:45:06.953Z,6.88
2018-01-27T05:46:03.573Z,6.88
2018-01-27T05:47:03.802Z,6.88
2018-01-27T05:48:03.660Z,6.89
2018-01-27T05:49:04.267Z,6.89
2018-01-27T05:50:03.406Z,6.87
2018-01-27T05:51:03.768Z,6.91
2018-01-27T05:52:03.214Z,6.88
2018-01-27T05:53:03.199Z,6.88
2018-01-27T05:54:03.333Z,6.89
2018-01-27T05:55:03.341Z,6.83
2018-01-27T05:56:03.170Z,6.81
2018-01-27T05:59:03.439Z,6.8
2018-01-27T06:00:03.134Z,6.77
2018-01-27T06:01:03.273Z,6.82
2018-01-27T06:02:03.225Z,6.85
2018-01-27T06:03:03.221Z,6.8
2018-01-27T06:04:03.268Z,6.8
2018-01-27T06:05:03.143Z,6.77
2018-01-27T06:06:03.244Z,6.75
2018-01-27T06:07:03.249Z,6.77
2018-01-27T06:08:03.223Z,6.8
2018-01-27T06:09:03.216Z,6.82
2018-01-27T06:10:03.084Z,6.77
2018-01-27T06:11:03.282Z,6.78
2018-01-27T06:12:03.224Z,6.78
2018-01-27T06:13:03.230Z,6.78
2018-01-27T06:14:03.339Z,6.76
2018-01-27T06:15:03.104Z,6.81
2018-01-27T06:16:03.088Z,6.78
2018-01-27T06:17:03.217Z,6.77
2018-01-27T06:18:03.138Z,6.73
2018-01-27T06:19:03.202Z,6.74
2018-01-27T06:20:03.138Z,6.74
2018-01-27T06:21:03.146Z,6.79
2018-01-27T06:22:03.314Z,6.79
2018-01-27T06:23:03.276Z,6.75
2018-01-27T06:24:03.327Z,6.78
2018-01-27T06:25:03.328Z,6.76
2018-01-27T06:26:03.181Z,6.8
2018-01-27T06:27:03.202Z,6.81
2018-01-27T06:28:03.301Z,6.79
2018-01-27T06:29:03.296Z,6.8
2018-01-27T06:30:03.305Z,6.79
2018-01-27T06:31:03.254Z,6.82
2018-01-27T06:32:03.271Z,6.81
2018-01-27T06:33:03.275Z,6.81
2018-01-27T06:34:03.363Z,6.8
2018-01-27T06:35:03.249Z,6.78
2018-01-27T06:36:03.425Z,6.8
2018-01-27T06:37:03.383Z,6.82
2018-01-27T06:38:03.403Z,6.79
2018-01-27T06:39:03.192Z,6.77
2018-01-27T06:40:04.737Z,6.73
2018-01-27T06:41:03.343Z,6.78
2018-01-27T06:42:03.355Z,6.79
2018-01-27T06:43:03.396Z,6.78
2018-01-27T06:44:03.262Z,6.81
2018-01-27T06:45:03.340Z,6.8
2018-01-27T06:46:03.356Z,6.79
2018-01-27T06:47:03.365Z,6.85
2018-01-27T06:48:03.284Z,6.86
2018-01-27T06:49:03.277Z,6.86
2018-01-27T06:50:03.734Z,6.85
2018-01-27T06:51:03.391Z,6.84
2018-01-27T06:52:03.521Z,6.84
2018-01-27T06:53:02.523Z,6.85
2018-01-27T06:54:02.582Z,6.82
2018-01-27T06:55:02.473Z,6.86
2018-01-27T06:56:02.530Z,6.87
2018-01-27T06:57:02.654Z,6.86
2018-01-27T06:58:02.562Z,6.87
2018-01-27T06:59:02.498Z,6.86
2018-01-27T07:00:02.522Z,6.86
2018-01-27T07:01:02.603Z,6.85
2018-01-27T07:02:02.724Z,6.88
2018-01-27T07:03:02.484Z,6.85
2018-01-27T07:04:02.635Z,6.85
2018-01-27T07:05:02.464Z,6.86
2018-01-27T07:06:02.723Z,6.87
2018-01-27T07:07:02.694Z,6.86
2018-01-27T07:08:02.535Z,6.89
2018-01-27T07:09:02.539Z,6.87
2018-01-27T07:10:02.630Z,6.85
2018-01-27T07:11:02.491Z,6.88
2018-01-27T07:12:02.629Z,6.85
2018-01-27T07:13:02.694Z,6.84
2018-01-27T07:14:02.575Z,6.83
2018-01-27T07:15:02.639Z,6.83
2018-01-27T07:16:02.668Z,6.83
2018-01-27T07:17:02.579Z,6.86
2018-01-27T07:18:02.599Z,6.83
2018-01-27T07:19:02.649Z,6.8
2018-01-27T07:20:02.835Z,6.79
2018-01-27T07:21:02.574Z,6.75
2018-01-27T07:22:02.459Z,6.81
2018-01-27T07:23:02.701Z,6.8
2018-01-27T07:24:02.629Z,6.82
2018-01-27T07:25:02.759Z,6.82
2018-01-27T07:26:02.644Z,6.85
2018-01-27T07:27:02.539Z,6.84
2018-01-27T07:28:02.614Z,6.85
2018-01-27T07:29:02.734Z,6.86
2018-01-27T07:30:02.693Z,6.82
2018-01-27T07:31:02.832Z,6.84
2018-01-27T07:32:02.712Z,6.81
2018-01-27T07:33:02.538Z,6.85
2018-01-27T07:34:02.615Z,6.84
2018-01-27T07:35:02.684Z,6.84
2018-01-27T07:36:02.605Z,6.84
2018-01-27T07:37:02.595Z,6.84
2018-01-27T07:38:02.770Z,6.82
2018-01-27T07:39:02.781Z,6.85
2018-01-27T07:40:03.562Z,6.8
2018-01-27T07:41:02.772Z,6.77
2018-01-27T07:42:02.574Z,6.75
2018-01-27T07:43:02.649Z,6.72
2018-01-27T07:44:02.633Z,6.68
2018-01-27T07:45:02.852Z,6.7
2018-01-27T07:46:02.559Z,6.66
2018-01-27T07:47:02.542Z,6.61
2018-01-27T07:48:02.714Z,6.63
2018-01-27T07:49:02.678Z,6.63
2018-01-27T07:50:02.654Z,6.66
2018-01-27T07:51:02.529Z,6.64
2018-01-27T07:52:02.586Z,6.68
2018-01-27T07:53:02.786Z,6.7
2018-01-27T07:54:02.567Z,6.65
2018-01-27T07:55:02.650Z,6.65
2018-01-27T07:56:02.671Z,6.63
2018-01-27T07:57:02.688Z,6.65
2018-01-27T07:58:02.819Z,6.68
2018-01-27T07:59:02.685Z,6.65
2018-01-27T08:00:02.709Z,6.63
2018-01-27T08:01:02.755Z,6.66
2018-01-27T08:02:02.759Z,6.67
2018-01-27T08:03:02.774Z,6.64
2018-01-27T08:04:02.596Z,6.64
2018-01-27T08:05:02.826Z,6.63
2018-01-27T08:06:02.684Z,6.62
2018-01-27T08:07:02.715Z,6.64
2018-01-27T08:08:02.673Z,6.63
2018-01-27T08:09:02.687Z,6.65
2018-01-27T08:10:02.733Z,6.64
2018-01-27T08:11:02.588Z,6.66
2018-01-27T08:12:02.834Z,6.66
2018-01-27T08:13:02.756Z,6.64
2018-01-27T08:14:02.739Z,6.64
2018-01-27T08:15:02.606Z,6.63
2018-01-27T08:16:02.763Z,6.59
2018-01-27T08:17:02.793Z,6.6
2018-01-27T08:18:02.571Z,6.62
2018-01-27T08:19:02.720Z,6.64
2018-01-27T08:20:02.701Z,6.55
2018-01-27T08:21:03.309Z,6.55
2018-01-27T08:22:02.793Z,6.53
2018-01-27T08:23:02.758Z,6.54
2018-01-27T08:24:02.821Z,6.48
2018-01-27T08:25:02.796Z,6.51
2018-01-27T08:26:02.630Z,6.48
2018-01-27T08:27:02.736Z,6.46
2018-01-27T08:28:02.992Z,6.45
2018-01-27T08:29:02.745Z,6.49
2018-01-27T08:30:02.850Z,6.46
2018-01-27T08:31:02.787Z,6.49
2018-01-27T08:32:02.853Z,6.49
2018-01-27T08:33:02.805Z,6.51
2018-01-27T08:36:16.896Z,6.46
2018-01-27T08:37:02.729Z,6.49
2018-01-27T08:38:02.711Z,6.49
2018-01-27T08:39:02.814Z,6.49
2018-01-27T08:40:02.735Z,6.51
2018-01-27T08:41:02.809Z,6.51
2018-01-27T08:42:02.799Z,6.46
2018-01-27T08:43:02.841Z,6.47
2018-01-27T08:44:02.864Z,6.46
2018-01-27T08:45:02.713Z,6.41
2018-01-27T08:46:02.840Z,6.42
2018-01-27T08:47:02.809Z,6.43
2018-01-27T08:48:02.833Z,6.45
2018-01-27T08:49:02.776Z,6.44
2018-01-27T08:50:02.784Z,6.48
2018-01-27T08:51:02.784Z,6.5
2018-01-27T08:52:02.823Z,6.49
2018-01-27T08:53:02.775Z,6.51
2018-01-27T08:54:02.941Z,6.46
2018-01-27T08:55:02.852Z,6.51
2018-01-27T08:56:02.871Z,6.55
2018-01-27T08:57:02.833Z,6.53
2018-01-27T08:58:05.174Z,6.5
2018-01-27T08:59:02.857Z,6.49
2018-01-27T09:00:02.719Z,6.54
2018-01-27T09:01:02.771Z,6.53
2018-01-27T09:02:02.835Z,6.41
2018-01-27T09:03:02.818Z,6.5
2018-01-27T09:04:02.860Z,6.47
2018-01-27T09:05:02.817Z,6.49
2018-01-27T09:06:27.867Z,6.53
2018-01-27T09:07:02.777Z,6.52
2018-01-27T09:08:02.728Z,6.5
2018-01-27T09:09:02.944Z,6.53
2018-01-27T09:10:19.179Z,6.57
2018-01-27T09:11:19.076Z,6.54
2018-01-27T09:13:19.049Z,6.55
2018-01-27T09:14:19.060Z,6.59
2018-01-27T09:15:19.085Z,6.54
2018-01-27T09:16:19.123Z,6.55
2018-01-27T09:17:19.074Z,6.51
2018-01-27T09:18:19.128Z,6.59
2018-01-27T09:19:19.102Z,6.6
2018-01-27T09:20:18.864Z,6.57
2018-01-27T09:21:18.886Z,6.57
2018-01-27T09:22:19.422Z,6.56
2018-01-27T09:23:19.040Z,6.57
2018-01-27T09:24:17.936Z,6.57
2018-01-27T09:25:18.002Z,6.5
2018-01-27T09:26:17.956Z,6.55
2018-01-27T09:27:18.325Z,6.56
2018-01-27T09:28:18.118Z,6.51
2018-01-27T09:29:17.812Z,6.49
2018-01-27T09:30:18.338Z,6.46
2018-01-27T09:31:17.953Z,6.53
2018-01-27T09:32:17.866Z,6.56
2018-01-27T09:33:17.881Z,6.57
2018-01-27T09:34:17.870Z,6.59
2018-01-27T09:35:18.033Z,6.57
2018-01-27T09:36:17.940Z,6.56
2018-01-27T09:37:17.974Z,6.56
2018-01-27T09:38:17.992Z,6.51
2018-01-27T09:39:17.900Z,6.53
2018-01-27T09:40:18.042Z,6.57
2018-01-27T09:41:17.956Z,6.58
2018-01-27T09:42:17.954Z,6.61
2018-01-27T09:43:17.998Z,6.58
2018-01-27T09:44:17.951Z,6.57
2018-01-27T09:45:17.928Z,6.64
2018-01-27T09:46:17.830Z,6.6
2018-01-27T09:47:18.017Z,6.59
2018-01-27T09:48:19.019Z,6.57
2018-01-27T09:49:18.020Z,6.64
2018-01-27T09:50:18.067Z,6.62
2018-01-27T09:51:17.995Z,6.56
2018-01-27T09:52:18.135Z,6.59
2018-01-27T09:53:17.884Z,6.62
2018-01-27T09:54:17.924Z,6.63
2018-01-27T09:55:17.998Z,6.64
2018-01-27T09:56:17.994Z,6.65
2018-01-27T09:57:48.798Z,6.66
2018-01-27T09:58:21.102Z,6.66
2018-01-27T09:59:21.898Z,6.67
2018-01-27T10:00:19.286Z,6.67
2018-01-27T10:01:18.914Z,6.68
2018-01-27T10:02:19.828Z,6.68
2018-01-27T10:03:19.353Z,6.7
2018-01-27T10:04:18.336Z,6.67
2018-01-27T10:05:21.841Z,6.68
2018-01-27T10:06:20.036Z,6.64
2018-01-27T10:07:18.127Z,6.67
2018-01-27T10:08:18.227Z,6.65
2018-01-27T10:09:21.601Z,6.68
2018-01-27T10:10:22.334Z,6.66
2018-01-27T10:11:29.274Z,6.68
2018-01-27T10:12:22.630Z,6.69
2018-01-27T10:13:19.116Z,6.69
2018-01-27T10:14:18.884Z,6.71
2018-01-27T10:15:18.736Z,6.7
2018-01-27T10:16:21.431Z,6.7
2018-01-27T10:17:19.729Z,6.65
2018-01-27T10:18:17.671Z,6.62
2018-01-27T10:19:46.783Z,6.56
2018-01-27T10:20:18.502Z,6.6
2018-01-27T10:21:18.929Z,6.61
2018-01-27T10:22:18.063Z,6.61
2018-01-27T10:23:18.434Z,6.61
2018-01-27T10:24:17.693Z,6.57
2018-01-27T10:25:20.625Z,6.58
2018-01-27T10:26:24.128Z,6.6
2018-01-27T10:27:18.512Z,6.54
2018-01-27T10:28:21.780Z,6.57
2018-01-27T10:29:18.918Z,6.57
2018-01-27T10:30:20.211Z,6.56
2018-01-27T10:31:17.943Z,6.55
2018-01-27T10:32:19.134Z,6.61
2018-01-27T10:33:17.635Z,6.6
2018-01-27T10:34:19.047Z,6.63
2018-01-27T10:35:19.791Z,6.63
2018-01-27T10:36:21.385Z,6.64
2018-01-27T10:37:18.651Z,6.66
2018-01-27T10:38:19.027Z,6.67
2018-01-27T10:39:17.578Z,6.72
2018-01-27T10:40:17.473Z,6.65
2018-01-27T10:41:18.730Z,6.62
2018-01-27T10:42:19.738Z,6.66
2018-01-27T10:43:18.266Z,6.68
2018-01-27T10:44:19.147Z,6.68
2018-01-27T10:45:19.679Z,6.73
2018-01-27T10:46:17.598Z,6.65
2018-01-27T10:47:18.975Z,6.65
2018-01-27T10:48:17.914Z,6.72
2018-01-27T10:49:19.474Z,6.63
2018-01-27T10:50:19.794Z,6.59
2018-01-27T10:51:18.777Z,6.59
2018-01-27T10:52:18.597Z,6.61
2018-01-27T10:53:18.614Z,6.52
2018-01-27T10:54:19.550Z,6.57
2018-01-27T10:55:17.803Z,6.6
2018-01-27T10:56:17.833Z,6.54
2018-01-27T10:57:19.330Z,6.51
2018-01-27T10:58:19.505Z,6.55
2018-01-27T10:59:25.103Z,6.61
2018-01-27T11:00:19.250Z,6.57
2018-01-27T11:01:18.516Z,6.56
2018-01-27T11:02:17.968Z,6.56
2018-01-27T11:03:17.776Z,6.58
2018-01-27T11:04:19.209Z,6.57
2018-01-27T11:05:18.594Z,6.56
2018-01-27T11:06:17.811Z,6.51
2018-01-27T11:07:21.136Z,6.46
2018-01-27T11:08:20.989Z,6.47
2018-01-27T11:09:19.540Z,6.42
2018-01-27T11:10:18.328Z,6.45
2018-01-27T11:11:20.686Z,6.5
2018-01-27T11:12:18.081Z,6.46
2018-01-27T11:13:18.464Z,6.48
2018-01-27T11:14:18.521Z,6.48
2018-01-27T11:15:18.675Z,6.51
2018-01-27T11:16:18.758Z,6.53
2018-01-27T11:17:18.596Z,6.47
2018-01-27T11:18:19.107Z,6.52
2018-01-27T11:19:19.177Z,6.51
2018-01-27T11:20:18.943Z,6.5
2018-01-27T11:21:18.600Z,6.5
2018-01-27T11:22:18.359Z,6.5
2018-01-27T11:23:20.056Z,6.49
2018-01-27T11:24:18.012Z,6.52
2018-01-27T11:25:18.145Z,6.55
2018-01-27T11:26:18.724Z,6.59
2018-01-27T11:27:19.305Z,6.61
2018-01-27T11:28:20.303Z,6.6
2018-01-27T11:29:27.201Z,6.58
2018-01-27T11:30:18.665Z,6.59
2018-01-27T11:31:20.428Z,6.58
2018-01-27T11:32:19.746Z,6.6
2018-01-27T11:33:18.592Z,6.61
2018-01-27T11:34:18.790Z,6.59
2018-01-27T11:35:18.606Z,6.63
2018-01-27T11:36:18.461Z,6.61
2018-01-27T11:37:20.594Z,6.61
2018-01-27T11:38:17.696Z,6.59
2018-01-27T11:39:17.623Z,6.6
2018-01-27T11:40:17.919Z,6.57
2018-01-27T11:41:17.693Z,6.59
2018-01-27T11:42:17.872Z,6.57
2018-01-27T11:43:18.126Z,6.48
2018-01-27T11:44:18.079Z,6.48
2018-01-27T11:45:17.925Z,6.55
2018-01-27T11:46:17.978Z,6.55
2018-01-27T11:47:17.877Z,6.57
2018-01-27T11:48:17.779Z,6.56
2018-01-27T11:49:17.860Z,6.58
2018-01-27T11:50:17.897Z,6.58
2018-01-27T11:51:17.976Z,6.59
2018-01-27T11:52:17.936Z,6.59
2018-01-27T11:53:17.940Z,6.55
2018-01-27T11:54:17.883Z,6.51
2018-01-27T11:55:18.119Z,6.47
2018-01-27T11:56:17.935Z,6.54
2018-01-27T11:57:17.986Z,6.56
2018-01-27T11:58:17.868Z,6.56
2018-01-27T11:59:17.893Z,6.57
2018-01-27T12:00:17.832Z,6.6
2018-01-27T12:01:17.912Z,6.55
2018-01-27T12:02:17.862Z,6.54
2018-01-27T12:03:17.937Z,6.56
2018-01-27T12:04:17.794Z,6.56
2018-01-27T12:05:18.110Z,6.56
2018-01-27T12:06:17.773Z,6.56
2018-01-27T12:07:18.138Z,6.56
2018-01-27T12:08:17.933Z,6.57
2018-01-27T12:09:17.856Z,6.59
2018-01-27T12:10:18.377Z,6.6
2018-01-27T12:11:17.985Z,6.61
2018-01-27T12:12:17.942Z,6.58
2018-01-27T12:13:17.968Z,6.61
2018-01-27T12:14:17.833Z,6.6
2018-01-27T12:15:17.912Z,6.6
2018-01-27T12:16:18.063Z,6.6
2018-01-27T12:17:17.941Z,6.69
2018-01-27T12:18:17.994Z,6.63
2018-01-27T12:19:17.978Z,6.64
2018-01-27T12:20:17.845Z,6.61
2018-01-27T12:21:17.982Z,6.63
2018-01-27T12:22:17.913Z,6.65
2018-01-27T12:23:18.064Z,6.63
2018-01-27T12:24:17.916Z,6.65
2018-01-27T12:25:17.882Z,6.64
2018-01-27T12:26:17.956Z,6.63
2018-01-27T12:27:18.054Z,6.64
2018-01-27T12:30:18.375Z,6.66
2018-01-27T12:31:18.027Z,6.7
2018-01-27T12:32:17.896Z,6.64
2018-01-27T12:33:18.046Z,6.59
2018-01-27T12:34:17.990Z,6.63
2018-01-27T12:35:18.048Z,6.64
2018-01-27T12:36:18.041Z,6.66
2018-01-27T12:37:18.000Z,6.67
2018-01-27T12:38:17.847Z,6.66
2018-01-27T12:39:18.047Z,6.66
2018-01-27T12:40:17.950Z,6.66
2018-01-27T12:41:17.935Z,6.68
2018-01-27T12:42:18.043Z,6.68
2018-01-27T12:43:17.893Z,6.66
2018-01-27T12:44:17.995Z,6.67
2018-01-27T12:45:18.018Z,6.63
2018-01-27T12:46:17.861Z,6.6
2018-01-27T12:47:18.079Z,6.63
2018-01-27T12:48:17.979Z,6.67
2018-01-27T12:49:18.036Z,6.67
2018-01-27T12:50:17.882Z,6.69
2018-01-27T12:51:17.936Z,6.68
2018-01-27T12:52:18.101Z,6.71
2018-01-27T12:53:18.052Z,6.69
2018-01-27T12:54:18.133Z,6.69
2018-01-27T12:55:18.133Z,6.68
2018-01-27T12:56:17.969Z,6.68
2018-01-27T12:57:18.169Z,6.67
2018-01-27T12:58:18.178Z,6.69
2018-01-27T12:59:18.011Z,6.68
2018-01-27T13:00:18.207Z,6.71
2018-01-27T13:01:18.169Z,6.7
2018-01-27T13:02:18.095Z,6.71
2018-01-27T13:03:18.282Z,6.71
2018-01-27T13:04:18.109Z,6.65
2018-01-27T13:05:18.144Z,6.7
2018-01-27T13:06:18.206Z,6.7
2018-01-27T13:07:18.082Z,6.67
2018-01-27T13:08:18.035Z,6.67
2018-01-27T13:09:18.033Z,6.67
2018-01-27T13:10:18.008Z,6.68
2018-01-27T13:11:18.104Z,6.75
2018-01-27T13:12:18.021Z,6.67
2018-01-27T13:13:18.097Z,6.66
2018-01-27T13:14:18.026Z,6.64
2018-01-27T13:15:18.978Z,6.63
2018-01-27T13:16:18.172Z,6.67
2018-01-27T13:17:18.217Z,6.67
2018-01-27T13:18:18.107Z,6.66
2018-01-27T13:19:18.130Z,6.67
2018-01-27T13:20:18.187Z,6.69
2018-01-27T13:21:18.373Z,6.72
2018-01-27T13:22:18.126Z,6.73
2018-01-27T13:23:18.176Z,6.7
2018-01-27T13:24:18.143Z,6.68
2018-01-27T13:25:18.131Z,6.72
2018-01-27T13:26:18.044Z,6.73
2018-01-27T13:27:22.201Z,6.72
2018-01-27T13:28:18.056Z,6.73
2018-01-27T13:29:18.248Z,6.74